createdAt,value
2017-06-23T00:00:53.568Z,0
2017-06-23T00:02:03.789Z,0
2017-06-23T00:03:13.078Z,0
2017-06-23T00:04:22.699Z,0
2017-06-23T00:05:32.927Z,0
2017-06-23T00:06:43.159Z,0
2017-06-23T00:07:53.094Z,0
2017-06-23T00:09:02.706Z,0
2017-06-23T00:10:12.934Z,0
2017-06-23T00:11:22.533Z,0
2017-06-23T00:12:31.845Z,0
2017-06-23T00:13:41.767Z,0
2017-06-23T00:14:51.995Z,0
2017-06-23T00:16:01.931Z,0
2017-06-23T00:17:11.831Z,0
2017-06-23T00:18:21.746Z,0
2017-06-23T00:19:31.354Z,0
2017-06-23T00:20:41.582Z,0
2017-06-23T00:21:51.805Z,0
2017-06-23T00:23:01.411Z,0
2017-06-23T00:24:11.335Z,0
2017-06-23T00:25:21.244Z,0
2017-06-23T00:26:30.550Z,0
2017-06-23T00:27:40.158Z,0
2017-06-23T00:28:50.383Z,0
2017-06-23T00:30:00.592Z,0
2017-06-23T00:31:10.512Z,0
2017-06-23T00:32:20.121Z,0
2017-06-23T00:33:30.337Z,0
2017-06-23T00:34:39.943Z,0
2017-06-23T00:35:50.155Z,0
2017-06-23T00:36:59.750Z,0
2017-06-23T00:38:09.369Z,0
2017-06-23T00:39:19.588Z,0
2017-06-23T00:40:29.187Z,0
2017-06-23T00:41:38.810Z,0
2017-06-23T00:42:48.720Z,0
2017-06-23T00:43:58.632Z,0
2017-06-23T00:45:08.567Z,0
2017-06-23T00:46:18.781Z,0
2017-06-23T00:47:28.689Z,0
2017-06-23T00:48:38.898Z,0
2017-06-23T00:49:48.811Z,0
2017-06-23T00:50:58.111Z,0
2017-06-23T00:52:07.740Z,0
2017-06-23T00:53:17.978Z,0
2017-06-23T00:54:27.910Z,0
2017-06-23T00:55:38.137Z,0
2017-06-23T00:56:47.441Z,0
2017-06-23T00:57:57.053Z,0
2017-06-23T00:59:07.276Z,0
2017-06-23T01:00:17.189Z,0
2017-06-23T01:01:27.098Z,0
2017-06-23T01:02:37.339Z,0
2017-06-23T01:03:47.256Z,0
2017-06-23T01:04:56.872Z,0
2017-06-23T01:06:06.786Z,0
2017-06-23T01:07:17.010Z,0
2017-06-23T01:08:27.244Z,0
2017-06-23T01:09:37.141Z,0
2017-06-23T01:10:47.065Z,0
2017-06-23T01:11:56.984Z,0
2017-06-23T01:13:06.592Z,0
2017-06-23T01:14:16.519Z,0
2017-06-23T01:15:26.435Z,0
2017-06-23T01:16:36.344Z,0
2017-06-23T01:17:46.251Z,0
2017-06-23T01:18:56.470Z,0
2017-06-23T01:20:06.072Z,0
2017-06-23T01:21:15.681Z,0
2017-06-23T01:22:25.291Z,0
2017-06-23T01:23:35.219Z,0
2017-06-23T01:24:45.158Z,0
2017-06-23T01:25:55.379Z,0
2017-06-23T01:27:04.686Z,0
2017-06-23T01:28:13.987Z,0
2017-06-23T01:29:23.599Z,0
2017-06-23T01:30:33.293Z,0
2017-06-23T01:31:43.519Z,0
2017-06-23T01:32:53.747Z,0
2017-06-23T01:34:03.662Z,0
2017-06-23T01:35:13.876Z,0
2017-06-23T01:36:23.807Z,0
2017-06-23T01:37:33.114Z,0
2017-06-23T01:38:42.729Z,0
2017-06-23T01:39:52.946Z,0
2017-06-23T01:41:02.238Z,0
2017-06-23T01:42:11.550Z,0
2017-06-23T01:43:21.463Z,0
2017-06-23T01:44:31.384Z,0
2017-06-23T01:45:41.607Z,0
2017-06-23T01:46:51.523Z,0
2017-06-23T01:48:01.734Z,0
2017-06-23T01:49:11.342Z,0
2017-06-23T01:50:21.250Z,0
2017-06-23T01:51:31.477Z,0
2017-06-23T01:52:42.084Z,0
2017-06-23T01:53:52.000Z,0
2017-06-23T01:55:01.907Z,0
2017-06-23T01:56:10.903Z,0
2017-06-23T01:57:20.816Z,0
2017-06-23T01:58:30.718Z,0
2017-06-23T01:59:40.654Z,0
2017-06-23T02:00:50.565Z,0
2017-06-23T02:02:00.472Z,0
2017-06-23T02:03:10.383Z,0
2017-06-23T02:04:20.599Z,0
2017-06-23T02:05:30.518Z,0
2017-06-23T02:06:40.733Z,0
2017-06-23T02:07:50.642Z,0
2017-06-23T02:09:00.564Z,0
2017-06-23T02:10:09.567Z,0
2017-06-23T02:11:19.787Z,0
2017-06-23T02:12:29.704Z,0
2017-06-23T02:13:39.622Z,0
2017-06-23T02:14:48.603Z,0
2017-06-23T02:15:58.520Z,0
2017-06-23T02:17:08.430Z,0
2017-06-23T02:18:18.046Z,0
2017-06-23T02:19:27.965Z,0
2017-06-23T02:20:38.195Z,0
2017-06-23T02:21:47.825Z,0
2017-06-23T02:22:57.736Z,0
2017-06-23T02:24:07.646Z,0
2017-06-23T02:25:17.568Z,0
2017-06-23T02:26:27.485Z,0
2017-06-23T02:27:37.395Z,0
2017-06-23T02:28:47.009Z,0
2017-06-23T02:29:57.253Z,0
2017-06-23T02:31:07.473Z,0
2017-06-23T02:32:17.399Z,0
2017-06-23T02:33:27.622Z,0
2017-06-23T02:34:37.835Z,0
2017-06-23T02:35:47.756Z,0
2017-06-23T02:36:57.669Z,0
2017-06-23T02:38:07.285Z,0
2017-06-23T02:39:17.193Z,0
2017-06-23T02:40:27.106Z,0
2017-06-23T02:41:37.012Z,0
2017-06-23T02:42:47.237Z,0
2017-06-23T02:43:56.848Z,0
2017-06-23T02:45:06.457Z,0
2017-06-23T02:46:16.377Z,0
2017-06-23T02:47:26.300Z,0
2017-06-23T02:48:36.744Z,0
2017-06-23T02:49:46.971Z,0
2017-06-23T02:50:57.581Z,0
2017-06-23T02:52:06.877Z,0
2017-06-23T02:53:16.792Z,0
2017-06-23T02:54:26.097Z,0
2017-06-23T02:55:36.026Z,0
2017-06-23T02:56:46.243Z,0
2017-06-23T02:57:56.160Z,0
2017-06-23T02:59:06.375Z,4
2017-06-23T03:00:15.976Z,4
2017-06-23T03:01:26.191Z,4
2017-06-23T03:02:35.487Z,4
2017-06-23T03:03:45.093Z,4
2017-06-23T03:04:55.310Z,4
2017-06-23T03:06:05.227Z,4
2017-06-23T03:07:15.453Z,4
2017-06-23T03:08:25.676Z,4
2017-06-23T03:09:35.603Z,8
2017-06-23T03:10:45.829Z,8
2017-06-23T03:11:55.446Z,8
2017-06-23T03:13:05.049Z,8
2017-06-23T03:14:14.966Z,12
2017-06-23T03:15:25.190Z,12
2017-06-23T03:16:35.431Z,12
2017-06-23T03:17:45.039Z,16
2017-06-23T03:18:54.949Z,16
2017-06-23T03:20:04.252Z,16
2017-06-23T03:21:14.176Z,16
2017-06-23T03:22:24.099Z,16
2017-06-23T03:23:34.351Z,20
2017-06-23T03:24:44.593Z,20
2017-06-23T03:25:54.819Z,24
2017-06-23T03:27:04.733Z,24
2017-06-23T03:28:14.954Z,24
2017-06-23T03:29:24.879Z,24
2017-06-23T03:30:35.122Z,24
2017-06-23T03:31:45.044Z,28
2017-06-23T03:32:54.656Z,28
2017-06-23T03:34:03.968Z,36
2017-06-23T03:35:14.196Z,36
2017-06-23T03:36:24.426Z,36
2017-06-23T03:37:34.663Z,40
2017-06-23T03:38:44.343Z,44
2017-06-23T03:39:53.656Z,56
2017-06-23T03:41:03.605Z,60
2017-06-23T03:42:13.526Z,56
2017-06-23T03:43:23.132Z,56
2017-06-23T03:44:33.036Z,56
2017-06-23T03:45:42.646Z,64
2017-06-23T03:46:52.248Z,72
2017-06-23T03:48:02.463Z,76
2017-06-23T03:49:12.379Z,72
2017-06-23T03:50:22.000Z,72
2017-06-23T03:51:32.212Z,76
2017-06-23T03:52:41.817Z,88
2017-06-23T03:53:52.043Z,100
2017-06-23T03:55:01.954Z,104
2017-06-23T03:56:12.193Z,112
2017-06-23T03:57:21.500Z,112
2017-06-23T03:58:31.736Z,120
2017-06-23T03:59:41.341Z,124
2017-06-23T04:00:51.557Z,120
2017-06-23T04:02:01.168Z,112
2017-06-23T04:03:11.092Z,112
2017-06-23T04:04:21.308Z,128
2017-06-23T04:05:31.552Z,140
2017-06-23T04:06:41.782Z,148
2017-06-23T04:07:52.016Z,148
2017-06-23T04:09:01.930Z,156
2017-06-23T04:10:11.539Z,168
2017-06-23T04:11:21.472Z,196
2017-06-23T04:12:31.383Z,216
2017-06-23T04:13:41.005Z,208
2017-06-23T04:14:50.304Z,216
2017-06-23T04:16:00.215Z,240
2017-06-23T04:17:09.827Z,272
2017-06-23T04:18:19.742Z,324
2017-06-23T04:19:29.668Z,352
2017-06-23T04:20:39.270Z,380
2017-06-23T04:21:49.229Z,380
2017-06-23T04:22:58.855Z,408
2017-06-23T04:24:08.773Z,424
2017-06-23T04:25:18.374Z,424
2017-06-23T04:26:28.300Z,416
2017-06-23T04:27:38.544Z,376
2017-06-23T04:28:48.779Z,360
2017-06-23T04:29:59.014Z,392
2017-06-23T04:31:08.636Z,400
2017-06-23T04:32:18.572Z,380
2017-06-23T04:33:28.822Z,376
2017-06-23T04:34:38.483Z,408
2017-06-23T04:35:48.413Z,388
2017-06-23T04:36:58.633Z,376
2017-06-23T04:38:07.940Z,376
2017-06-23T04:39:17.851Z,412
2017-06-23T04:40:28.083Z,364
2017-06-23T04:41:38.315Z,364
2017-06-23T04:42:48.539Z,368
2017-06-23T04:43:58.476Z,372
2017-06-23T04:45:08.433Z,368
2017-06-23T04:46:18.648Z,356
2017-06-23T04:47:28.251Z,312
2017-06-23T04:48:38.220Z,316
2017-06-23T04:49:48.454Z,324
2017-06-23T04:50:58.690Z,356
2017-06-23T04:52:08.302Z,420
2017-06-23T04:53:17.911Z,404
2017-06-23T04:54:27.818Z,368
2017-06-23T04:55:38.058Z,420
2017-06-23T04:56:47.657Z,560
2017-06-23T04:57:57.867Z,680
2017-06-23T04:59:07.464Z,632
2017-06-23T05:00:17.390Z,624
2017-06-23T05:01:27.322Z,644
2017-06-23T05:02:37.260Z,656
2017-06-23T05:03:47.504Z,660
2017-06-23T05:04:56.508Z,636
2017-06-23T05:06:06.461Z,696
2017-06-23T05:07:16.679Z,780
2017-06-23T05:08:26.916Z,920
2017-06-23T05:09:36.849Z,920
2017-06-23T05:10:46.798Z,868
2017-06-23T05:11:56.745Z,856
2017-06-23T05:13:06.348Z,872
2017-06-23T05:14:15.641Z,884
2017-06-23T05:15:25.894Z,924
2017-06-23T05:16:35.498Z,872
2017-06-23T05:17:45.401Z,752
2017-06-23T05:18:55.317Z,708
2017-06-23T05:20:05.528Z,676
2017-06-23T05:21:15.439Z,688
2017-06-23T05:22:25.660Z,676
2017-06-23T05:23:35.578Z,700
2017-06-23T05:24:45.489Z,828
2017-06-23T05:25:55.105Z,912
2017-06-23T05:27:04.399Z,856
2017-06-23T05:28:14.312Z,732
2017-06-23T05:29:23.314Z,708
2017-06-23T05:30:32.609Z,776
2017-06-23T05:31:42.836Z,1036
2017-06-23T05:32:52.752Z,1232
2017-06-23T05:34:02.371Z,896
2017-06-23T05:35:11.988Z,864
2017-06-23T05:36:21.603Z,992
2017-06-23T05:37:30.901Z,828
2017-06-23T05:38:40.504Z,824
2017-06-23T05:39:50.413Z,936
2017-06-23T05:41:00.319Z,1184
2017-06-23T05:42:09.943Z,1180
2017-06-23T05:43:19.854Z,1304
2017-06-23T05:44:29.455Z,1484
2017-06-23T05:45:39.377Z,1920
2017-06-23T05:46:48.984Z,1828
2017-06-23T05:47:57.979Z,2092
2017-06-23T05:49:08.230Z,2284
2017-06-23T05:50:18.153Z,2868
2017-06-23T05:51:28.363Z,2248
2017-06-23T05:52:37.956Z,2448
2017-06-23T05:53:47.892Z,2084
2017-06-23T05:54:57.818Z,1476
2017-06-23T05:56:07.129Z,1408
2017-06-23T05:57:17.050Z,1588
2017-06-23T05:58:26.662Z,1884
2017-06-23T05:59:36.289Z,2100
2017-06-23T06:00:45.908Z,1860
2017-06-23T06:01:55.211Z,1572
2017-06-23T06:03:05.146Z,1420
2017-06-23T06:04:15.368Z,1680
2017-06-23T06:05:24.998Z,1936
2017-06-23T06:06:34.909Z,2588
2017-06-23T06:07:44.826Z,3684
2017-06-23T06:08:54.739Z,5256
2017-06-23T06:10:04.664Z,5216
2017-06-23T06:11:14.891Z,14944
2017-06-23T06:12:24.812Z,3644
2017-06-23T06:13:34.729Z,3620
2017-06-23T06:14:44.334Z,3960
2017-06-23T06:15:53.950Z,4052
2017-06-23T06:17:03.881Z,4000
2017-06-23T06:18:13.792Z,4656
2017-06-23T06:19:23.709Z,4448
2017-06-23T06:20:33.321Z,4724
2017-06-23T06:21:43.245Z,5272
2017-06-23T06:22:52.857Z,4692
2017-06-23T06:24:02.776Z,3552
2017-06-23T06:25:12.692Z,3340
2017-06-23T06:26:22.937Z,3148
2017-06-23T06:27:32.246Z,3256
2017-06-23T06:28:41.893Z,3344
2017-06-23T06:29:51.515Z,2604
2017-06-23T06:31:01.126Z,3632
2017-06-23T06:32:11.051Z,2512
2017-06-23T06:33:20.969Z,3100
2017-06-23T06:34:30.875Z,3448
2017-06-23T06:35:40.482Z,3568
2017-06-23T06:36:50.101Z,3196
2017-06-23T06:38:00.077Z,4004
2017-06-23T06:39:09.996Z,2832
2017-06-23T06:40:19.614Z,2936
2017-06-23T06:41:29.560Z,2720
2017-06-23T06:42:39.795Z,1860
2017-06-23T06:43:50.027Z,1608
2017-06-23T06:44:59.953Z,2000
2017-06-23T06:46:09.897Z,2252
2017-06-23T06:49:52.503Z,2704
2017-06-23T06:51:02.729Z,2992
2017-06-23T06:52:13.004Z,2612
2017-06-23T06:53:22.998Z,2360
2017-06-23T06:57:05.611Z,2940
2017-06-23T06:58:15.521Z,3372
2017-06-23T07:02:00.846Z,2716
2017-06-23T07:03:10.777Z,2984
2017-06-23T07:04:21.008Z,3668
2017-06-23T07:05:30.923Z,3852
2017-06-23T07:09:12.913Z,6488
2017-06-23T07:10:22.851Z,4780
2017-06-23T07:11:32.790Z,3860
2017-06-23T07:12:42.390Z,4228
2017-06-23T07:13:52.605Z,7580
2017-06-23T07:15:02.225Z,8492
2017-06-23T07:16:12.167Z,6532
2017-06-23T07:17:22.081Z,13340
2017-06-23T07:18:31.695Z,12008
2017-06-23T07:19:41.304Z,19072
2017-06-23T07:20:51.236Z,9680
2017-06-23T07:22:00.898Z,6016
2017-06-23T07:23:10.826Z,6044
2017-06-23T07:24:20.745Z,5588
2017-06-23T07:25:31.030Z,5952
2017-06-23T07:26:40.365Z,6788
2017-06-23T07:27:50.291Z,15040
2017-06-23T07:28:59.934Z,7496
2017-06-23T07:30:09.871Z,12368
2017-06-23T07:31:20.123Z,11252
2017-06-23T07:32:29.764Z,8968
2017-06-23T07:33:39.693Z,11360
2017-06-23T07:34:49.932Z,6484
2017-06-23T07:35:59.557Z,9624
2017-06-23T07:37:09.183Z,6952
2017-06-23T07:38:18.818Z,7712
2017-06-23T07:39:27.816Z,12896
2017-06-23T07:40:37.750Z,22912
2017-06-23T07:41:47.672Z,17428
2017-06-23T07:42:57.906Z,27936
2017-06-23T07:44:07.840Z,35040
2017-06-23T07:45:18.080Z,40448
2017-06-23T07:46:27.704Z,40768
2017-06-23T07:47:37.050Z,28768
2017-06-23T07:48:46.985Z,41536
2017-06-23T07:49:56.001Z,35936
2017-06-23T07:51:05.631Z,14924
2017-06-23T07:52:15.552Z,28544
2017-06-23T07:53:25.777Z,28768
2017-06-23T07:54:35.105Z,16660
2017-06-23T07:55:45.327Z,5332
2017-06-23T07:56:54.973Z,3752
2017-06-23T07:58:05.234Z,25824
2017-06-23T07:59:15.167Z,24320
2017-06-23T08:00:25.407Z,7388
2017-06-23T08:01:35.319Z,26560
2017-06-23T08:02:45.559Z,9436
2017-06-23T08:03:55.775Z,20992
2017-06-23T08:05:05.707Z,26784
2017-06-23T08:06:15.630Z,26048
2017-06-23T08:07:25.246Z,22784
2017-06-23T08:08:35.467Z,24384
2017-06-23T08:09:45.399Z,31648
2017-06-23T08:10:55.327Z,34368
2017-06-23T08:12:05.248Z,31424
2017-06-23T08:13:15.212Z,32736
2017-06-23T08:14:25.131Z,32864
2017-06-23T08:15:34.747Z,33312
2017-06-23T08:16:44.363Z,35360
2017-06-23T08:17:53.993Z,39968
2017-06-23T08:19:03.930Z,37504
2017-06-23T08:20:14.196Z,39392
2017-06-23T08:21:23.859Z,39808
2017-06-23T08:22:34.107Z,35456
2017-06-23T08:23:44.036Z,28672
2017-06-23T08:24:53.955Z,22208
2017-06-23T08:26:04.191Z,21248
2017-06-23T08:27:14.169Z,15944
2017-06-23T08:28:24.095Z,11760
2017-06-23T08:29:33.705Z,19232
2017-06-23T08:30:43.637Z,18272
2017-06-23T08:31:53.576Z,10396
2017-06-23T08:33:03.805Z,10340
2017-06-23T08:34:13.456Z,9480
2017-06-23T08:35:23.922Z,10604
2017-06-23T08:36:33.544Z,9212
2017-06-23T08:37:43.172Z,8816
2017-06-23T08:38:52.480Z,12996
2017-06-23T08:40:01.803Z,12672
2017-06-23T08:41:11.752Z,25120
2017-06-23T08:42:21.087Z,23968
2017-06-23T08:43:31.032Z,22080
2017-06-23T08:44:41.040Z,14044
2017-06-23T08:45:50.363Z,10020
2017-06-23T08:47:00.300Z,9228
2017-06-23T08:48:10.281Z,10412
2017-06-23T08:49:20.207Z,9816
2017-06-23T08:50:29.836Z,8240
2017-06-23T08:51:39.770Z,8744
2017-06-23T08:52:49.390Z,9632
2017-06-23T08:53:59.658Z,8992
2017-06-23T08:55:09.282Z,8248
2017-06-23T08:56:19.228Z,7964
2017-06-23T08:57:29.466Z,8272
2017-06-23T08:58:39.400Z,8672
2017-06-23T08:59:49.632Z,8236
2017-06-23T09:00:59.568Z,8168
2017-06-23T09:02:09.828Z,7868
2017-06-23T09:03:19.765Z,7384
2017-06-23T09:04:29.427Z,6940
2017-06-23T09:05:39.684Z,6920
2017-06-23T09:06:49.635Z,7272
2017-06-23T09:07:59.564Z,6964
2017-06-23T09:09:09.188Z,6020
2017-06-23T09:10:19.112Z,5448
2017-06-23T09:11:29.361Z,4604
2017-06-23T09:12:39.609Z,4564
2017-06-23T09:13:48.609Z,5456
2017-06-23T09:14:58.614Z,5464
2017-06-23T09:16:08.607Z,5744
2017-06-23T09:17:18.309Z,6260
2017-06-23T09:18:28.272Z,6224
2017-06-23T09:19:37.943Z,6004
2017-06-23T09:20:47.891Z,4564
2017-06-23T09:21:57.830Z,3760
2017-06-23T09:23:07.746Z,3652
2017-06-23T09:24:17.683Z,3928
2017-06-23T09:25:27.299Z,3764
2017-06-23T09:26:37.228Z,4312
2017-06-23T09:27:47.183Z,6112
2017-06-23T09:28:56.815Z,6404
2017-06-23T09:30:06.747Z,6320
2017-06-23T09:31:16.111Z,6036
2017-06-23T09:32:25.765Z,6052
2017-06-23T09:33:35.690Z,5984
2017-06-23T09:34:45.635Z,6736
2017-06-23T09:35:55.254Z,6776
2017-06-23T09:37:05.471Z,6456
2017-06-23T09:38:15.412Z,6292
2017-06-23T09:39:25.033Z,6220
2017-06-23T09:40:35.280Z,6160
2017-06-23T09:41:44.922Z,6160
2017-06-23T09:42:54.878Z,5840
2017-06-23T09:44:04.798Z,5460
2017-06-23T09:45:14.734Z,4920
2017-06-23T09:46:24.979Z,4764
2017-06-23T09:47:34.900Z,5196
2017-06-23T09:48:44.523Z,4908
2017-06-23T09:49:54.173Z,4984
2017-06-23T09:51:04.120Z,5344
2017-06-23T09:52:14.746Z,5580
2017-06-23T09:53:24.071Z,4968
2017-06-23T09:54:33.374Z,4224
2017-06-23T09:55:43.598Z,3380
2017-06-23T09:56:53.833Z,2552
2017-06-23T09:58:03.446Z,2180
2017-06-23T09:59:13.063Z,2144
2017-06-23T10:00:22.363Z,2576
2017-06-23T10:01:32.298Z,3248
2017-06-23T10:02:41.919Z,4112
2017-06-23T10:03:51.535Z,4348
2017-06-23T10:05:00.557Z,4724
2017-06-23T10:06:10.172Z,4760
2017-06-23T10:07:20.105Z,5088
2017-06-23T10:08:30.031Z,5292
2017-06-23T10:09:39.653Z,5352
2017-06-23T10:10:49.906Z,5644
2017-06-23T10:11:59.831Z,5208
2017-06-23T10:13:09.445Z,4700
2017-06-23T10:14:19.681Z,3720
2017-06-23T10:15:29.691Z,2376
2017-06-23T10:16:39.307Z,1600
2017-06-23T10:17:48.619Z,1392
2017-06-23T10:18:58.846Z,1332
2017-06-23T10:20:08.769Z,1500
2017-06-23T10:21:18.700Z,1864
2017-06-23T10:22:28.329Z,2240
2017-06-23T10:23:37.946Z,2524
2017-06-23T10:24:47.586Z,2928
2017-06-23T10:25:57.827Z,3444
2017-06-23T10:27:07.742Z,3660
2017-06-23T10:28:17.671Z,3996
2017-06-23T10:29:27.910Z,4556
2017-06-23T10:30:37.834Z,4644
2017-06-23T10:31:47.454Z,4816
2017-06-23T10:32:57.689Z,5032
2017-06-23T10:34:07.316Z,5208
2017-06-23T10:35:16.949Z,5116
2017-06-23T10:36:27.208Z,5128
2017-06-23T10:37:37.119Z,4984
2017-06-23T10:38:47.034Z,4904
2017-06-23T10:39:56.961Z,4460
2017-06-23T10:41:06.880Z,4192
2017-06-23T10:42:17.496Z,4644
2017-06-23T10:43:27.119Z,4724
2017-06-23T10:44:36.759Z,5092
2017-06-23T10:45:46.671Z,4808
2017-06-23T10:46:56.593Z,4136
2017-06-23T10:48:06.824Z,3708
2017-06-23T10:49:16.766Z,3484
2017-06-23T10:50:26.699Z,3296
2017-06-23T10:51:36.306Z,3356
2017-06-23T10:52:45.932Z,3276
2017-06-23T10:53:55.855Z,3116
2017-06-23T10:55:05.483Z,3124
2017-06-23T10:56:15.412Z,3216
2017-06-23T10:57:25.660Z,3492
2017-06-23T10:58:35.887Z,3576
2017-06-23T10:59:44.888Z,3820
2017-06-23T11:00:55.129Z,4192
2017-06-23T11:02:04.766Z,4320
2017-06-23T11:03:14.071Z,4324
2017-06-23T11:04:24.013Z,4040
2017-06-23T11:05:33.619Z,3804
2017-06-23T11:06:43.238Z,3936
2017-06-23T11:07:53.162Z,4064
2017-06-23T11:09:02.479Z,3332
2017-06-23T11:10:12.709Z,3096
2017-06-23T11:11:22.625Z,2760
2017-06-23T11:12:32.543Z,2168
2017-06-23T11:13:42.791Z,1824
2017-06-23T11:14:52.421Z,1712
2017-06-23T11:16:02.339Z,1768
2017-06-23T11:17:11.964Z,2012
2017-06-23T11:18:21.276Z,2496
2017-06-23T11:19:30.891Z,3288
2017-06-23T11:20:40.819Z,3392
2017-06-23T11:21:50.750Z,3400
2017-06-23T11:23:00.679Z,3148
2017-06-23T11:24:10.605Z,2840
2017-06-23T11:25:20.846Z,2616
2017-06-23T11:26:31.142Z,2672
2017-06-23T11:27:40.764Z,2392
2017-06-23T11:28:51.008Z,2052
2017-06-23T11:30:00.917Z,1824
2017-06-23T11:31:11.146Z,1788
2017-06-23T11:32:20.452Z,1848
2017-06-23T11:33:30.681Z,1956
2017-06-23T11:34:39.994Z,2652
2017-06-23T11:35:49.914Z,3236
2017-06-23T11:36:59.535Z,3596
2017-06-23T11:38:08.863Z,3732
2017-06-23T11:39:19.109Z,3164
2017-06-23T11:40:28.455Z,2716
2017-06-23T11:41:38.699Z,2600
2017-06-23T11:42:48.644Z,2672
2017-06-23T11:43:58.570Z,2932
2017-06-23T11:45:08.849Z,3288
2017-06-23T11:46:18.459Z,3680
2017-06-23T11:47:28.724Z,3284
2017-06-23T11:48:38.361Z,3128
2017-06-23T11:49:48.591Z,2832
2017-06-23T11:50:58.245Z,2296
2017-06-23T11:52:08.162Z,1940
2017-06-23T11:53:17.471Z,1756
2017-06-23T11:54:27.082Z,1592
2017-06-23T11:55:36.377Z,1624
2017-06-23T11:56:46.303Z,1864
2017-06-23T11:57:56.219Z,2644
2017-06-23T11:59:05.825Z,3820
2017-06-23T12:00:16.051Z,3744
2017-06-23T12:01:26.015Z,3304
2017-06-23T12:02:35.319Z,2924
2017-06-23T12:03:45.252Z,2544
2017-06-23T12:04:55.164Z,2344
2017-06-23T12:06:05.073Z,2272
2017-06-23T12:07:14.989Z,2416
2017-06-23T12:08:24.902Z,2608
2017-06-23T12:09:34.540Z,2584
2017-06-23T12:10:44.782Z,2712
2017-06-23T12:11:53.771Z,2940
2017-06-23T12:13:03.691Z,2996
2017-06-23T12:14:13.299Z,2932
2017-06-23T12:15:22.605Z,3044
2017-06-23T12:16:32.528Z,2888
2017-06-23T12:17:42.763Z,2604
2017-06-23T12:18:52.380Z,2448
2017-06-23T12:20:02.303Z,2468
2017-06-23T12:21:12.567Z,2292
2017-06-23T12:22:22.512Z,2240
2017-06-23T12:23:32.760Z,2196
2017-06-23T12:24:42.682Z,2184
2017-06-23T12:25:52.593Z,2264
2017-06-23T12:27:02.520Z,2424
2017-06-23T12:28:12.452Z,2640
2017-06-23T12:29:22.403Z,2912
2017-06-23T12:30:32.339Z,3156
2017-06-23T12:31:42.282Z,3440
2017-06-23T12:32:52.231Z,3820
2017-06-23T12:34:02.154Z,3820
2017-06-23T12:35:12.381Z,3596
2017-06-23T12:36:22.025Z,3156
2017-06-23T12:37:32.255Z,2648
2017-06-23T12:38:42.183Z,2240
2017-06-23T12:39:52.115Z,2236
2017-06-23T12:41:02.344Z,2088
2017-06-23T12:42:11.986Z,2060
2017-06-23T12:43:21.915Z,2160
2017-06-23T12:44:31.220Z,2516
2017-06-23T12:45:41.159Z,2772
2017-06-23T12:46:51.111Z,3060
2017-06-23T12:48:01.043Z,3264
2017-06-23T12:49:11.287Z,2912
2017-06-23T12:50:21.207Z,2628
2017-06-23T12:51:31.127Z,2672
2017-06-23T12:52:40.468Z,2628
2017-06-23T12:53:50.101Z,2620
2017-06-23T12:55:00.030Z,2676
2017-06-23T12:56:09.633Z,2560
2017-06-23T12:57:19.264Z,3076
2017-06-23T12:58:28.897Z,3188
2017-06-23T12:59:39.127Z,3136
2017-06-23T13:00:49.053Z,3168
2017-06-23T13:01:59.293Z,2884
2017-06-23T13:03:09.226Z,2732
2017-06-23T13:04:19.474Z,2576
2017-06-23T13:05:29.109Z,2540
2017-06-23T13:06:39.352Z,2568
2017-06-23T13:07:48.695Z,2624
2017-06-23T13:08:58.929Z,2592
2017-06-23T13:10:09.173Z,2508
2017-06-23T13:11:18.801Z,2260
2017-06-23T13:12:29.047Z,2064
2017-06-23T13:13:38.685Z,2228
2017-06-23T13:14:48.907Z,2352
2017-06-23T13:15:59.145Z,2408
2017-06-23T13:17:08.778Z,2408
2017-06-23T13:18:18.688Z,2252
2017-06-23T13:19:27.984Z,2152
2017-06-23T13:20:38.219Z,2088
2017-06-23T13:21:48.141Z,1788
2017-06-23T13:22:57.747Z,2020
2017-06-23T13:24:07.977Z,1924
2017-06-23T13:25:18.263Z,2080
2017-06-23T13:26:28.194Z,2072
2017-06-23T13:27:37.803Z,2020
2017-06-23T13:28:47.724Z,2388
2017-06-23T13:29:57.642Z,2240
2017-06-23T13:31:06.945Z,2180
2017-06-23T13:32:15.944Z,2332
2017-06-23T13:33:26.177Z,2248
2017-06-23T13:34:36.422Z,2132
2017-06-23T13:35:46.715Z,1920
2017-06-23T13:36:56.430Z,1780
2017-06-23T13:38:06.105Z,1712
2017-06-23T13:39:16.053Z,1644
2017-06-23T13:40:25.976Z,1676
2017-06-23T13:41:35.592Z,1748
2017-06-23T13:42:45.840Z,1844
2017-06-23T13:43:55.753Z,1828
2017-06-23T13:45:05.065Z,1792
2017-06-23T13:46:14.379Z,1800
2017-06-23T13:47:24.598Z,1776
2017-06-23T13:48:33.930Z,1792
2017-06-23T13:49:43.234Z,1784
2017-06-23T13:50:53.463Z,1764
2017-06-23T13:52:03.392Z,1492
2017-06-23T13:53:13.334Z,1740
2017-06-23T13:54:22.654Z,1612
2017-06-23T13:55:32.587Z,1660
2017-06-23T13:56:41.903Z,1660
2017-06-23T13:57:51.915Z,1528
2017-06-23T13:59:01.854Z,1816
2017-06-23T14:00:11.811Z,1832
2017-06-23T14:01:21.109Z,2044
2017-06-23T14:02:31.444Z,2296
2017-06-23T14:03:41.733Z,2244
2017-06-23T14:04:51.366Z,1996
2017-06-23T14:06:01.588Z,1588
2017-06-23T14:07:11.502Z,1660
2017-06-23T14:08:21.414Z,1608
2017-06-23T14:09:31.691Z,1444
2017-06-23T14:10:42.101Z,1552
2017-06-23T14:11:52.459Z,1552
2017-06-23T14:13:02.754Z,1772
2017-06-23T14:14:12.685Z,1860
2017-06-23T14:15:22.000Z,1840
2017-06-23T14:16:32.230Z,1872
2017-06-23T14:17:42.452Z,1752
2017-06-23T14:18:52.072Z,1668
2017-06-23T14:20:02.291Z,1684
2017-06-23T14:21:11.922Z,1648
2017-06-23T14:22:21.547Z,1644
2017-06-23T14:23:31.165Z,1580
2017-06-23T14:24:40.781Z,1552
2017-06-23T14:25:50.709Z,1512
2017-06-23T14:27:00.328Z,1500
2017-06-23T14:28:10.558Z,1508
2017-06-23T14:29:20.168Z,1472
2017-06-23T14:30:30.409Z,1504
2017-06-23T14:31:39.717Z,1492
2017-06-23T14:32:49.652Z,1544
2017-06-23T14:33:58.960Z,1612
2017-06-23T14:35:08.883Z,1624
2017-06-23T14:36:18.814Z,1548
2017-06-23T14:37:28.755Z,1472
2017-06-23T14:38:38.667Z,1436
2017-06-23T14:39:48.594Z,1432
2017-06-23T14:40:58.518Z,1468
2017-06-23T14:42:07.827Z,1532
2017-06-23T14:43:18.042Z,1592
2017-06-23T14:44:28.269Z,1652
2017-06-23T14:45:37.882Z,1616
2017-06-23T14:46:47.811Z,1624
2017-06-23T14:47:57.731Z,1544
2017-06-23T14:49:07.952Z,1508
2017-06-23T14:50:17.866Z,1536
2017-06-23T14:51:27.186Z,1572
2017-06-23T14:52:37.097Z,1564
2017-06-23T14:53:47.332Z,1548
2017-06-23T14:54:57.282Z,1496
2017-06-23T14:56:07.505Z,1448
2017-06-23T14:57:17.437Z,1272
2017-06-23T14:58:27.059Z,1224
2017-06-23T14:59:36.984Z,1420
2017-06-23T15:00:47.226Z,1388
2017-06-23T15:01:57.451Z,1404
2017-06-23T15:03:07.371Z,1400
2017-06-23T15:04:17.070Z,1404
2017-06-23T15:05:26.992Z,1420
2017-06-23T15:06:36.295Z,1428
2017-06-23T15:07:46.232Z,1452
2017-06-23T15:08:55.864Z,1440
2017-06-23T15:10:05.490Z,1360
2017-06-23T15:11:15.106Z,1304
2017-06-23T15:12:24.723Z,1280
2017-06-23T15:13:34.638Z,1252
2017-06-23T15:14:44.568Z,1296
2017-06-23T15:15:54.483Z,1312
2017-06-23T15:17:04.108Z,1356
2017-06-23T15:18:13.730Z,1480
2017-06-23T15:19:23.654Z,1512
2017-06-23T15:20:33.269Z,1456
2017-06-23T15:21:43.549Z,1408
2017-06-23T15:22:53.197Z,1384
2017-06-23T15:24:03.128Z,1360
2017-06-23T15:25:12.763Z,1324
2017-06-23T15:26:21.788Z,1344
2017-06-23T15:27:32.026Z,1336
2017-06-23T15:28:42.277Z,1304
2017-06-23T15:29:52.528Z,1296
2017-06-23T15:31:02.793Z,1336
2017-06-23T15:32:12.726Z,1352
2017-06-23T15:33:22.654Z,1316
2017-06-23T15:34:32.307Z,1272
2017-06-23T15:35:42.533Z,1224
2017-06-23T15:36:52.160Z,1284
2017-06-23T15:38:01.816Z,1284
2017-06-23T15:39:11.160Z,1248
2017-06-23T15:40:21.406Z,1276
2017-06-23T15:41:30.728Z,1284
2017-06-23T15:42:40.036Z,1264
2017-06-23T15:43:49.686Z,1268
2017-06-23T15:44:59.310Z,1244
2017-06-23T15:46:08.942Z,1208
2017-06-23T15:47:18.300Z,1232
2017-06-23T15:48:28.225Z,1252
2017-06-23T15:49:37.828Z,1244
2017-06-23T15:50:47.447Z,1252
2017-06-23T15:51:57.378Z,1268
2017-06-23T15:53:07.303Z,1264
2017-06-23T15:54:16.934Z,1264
2017-06-23T15:55:26.549Z,1276
2017-06-23T15:56:36.792Z,1232
2017-06-23T15:57:46.739Z,1196
2017-06-23T15:58:56.679Z,1188
2017-06-23T16:00:06.928Z,1156
2017-06-23T16:01:17.155Z,1196
2017-06-23T16:02:26.781Z,1248
2017-06-23T16:03:36.452Z,1252